Time;durP1;ratioP1;P1;durP2;ratioP2;P2;SDS_P1;SDS_P2;PMS_P1;PMS_P2;Temp;Humidity;BMP_temperature;BMP_pressure;BME280_temperature;BME280_humidity;BME280_pressure;Samples;Min_cycle;Max_cycle;Signal;HPM_P1;HPM_P2
2023/05/28 00:00:16;;;;;;;11.38;4.95;;;12.50;99.90;;;;;;5121654;27;20047;-60
2023/05/28 00:02:45;;;;;;;11.32;5.28;;;12.50;99.90;;;;;;5099129;28;20086;-58
2023/05/28 00:05:12;;;;;;;13.32;5.85;;;12.40;99.90;;;;;;5124757;28;20437;-57
2023/05/28 00:07:39;;;;;;;10.55;5.60;;;12.40;99.90;;;;;;5123174;27;20039;-59
2023/05/28 00:10:06;;;;;;;;;;;12.30;99.90;;;;;;5124167;28;20499;-59
2023/05/28 00:12:33;;;;;;;13.00;5.40;;;12.30;99.90;;;;;;5122625;28;19919;-60
2023/05/28 00:14:59;;;;;;;13.52;6.28;;;12.20;99.90;;;;;;5124981;28;20046;-59
2023/05/28 00:17:27;;;;;;;11.75;5.30;;;12.20;99.90;;;;;;5121534;28;20050;-59
2023/05/28 00:19:54;;;;;;;10.50;6.03;;;12.10;99.90;;;;;;5124027;28;20114;-60
2023/05/28 00:22:22;;;;;;;;;;;12.10;99.90;;;;;;5124263;28;20483;-60
2023/05/28 00:24:48;;;;;;;13.98;5.25;;;12.10;99.90;;;;;;5106850;28;19920;-59
2023/05/28 00:27:15;;;;;;;9.75;5.05;;;12.00;99.90;;;;;;5122000;28;20051;-57
2023/05/28 00:29:43;;;;;;;10.90;5.25;;;12.00;99.90;;;;;;5131348;28;20039;-60
2023/05/28 00:32:10;;;;;;;13.68;5.95;;;12.00;99.90;;;;;;5110220;28;20055;-58
2023/05/28 00:34:37;;;;;;;10.05;5.85;;;11.90;99.90;;;;;;5111240;28;20432;-59
2023/05/28 00:37:04;;;;;;;11.45;5.35;;;11.90;99.90;;;;;;5097104;28;20039;-60
2023/05/28 00:39:31;;;;;;;12.30;5.75;;;11.90;99.90;;;;;;5112290;28;20085;-59
2023/05/28 00:42:10;;;;;;;15.52;6.82;;;11.90;99.90;;;;;;5109685;28;20441;-60
2023/05/28 00:44:39;;;;;;;14.77;5.93;;;11.90;99.90;;;;;;5130766;28;20522;-60
2023/05/28 00:47:06;;;;;;;10.82;6.00;;;11.90;99.90;;;;;;5128140;27;20043;-60
2023/05/28 00:49:33;;;;;;;14.80;5.60;;;11.90;99.90;;;;;;5100941;28;20040;-59
2023/05/28 00:52:01;;;;;;;11.13;5.90;;;11.80;99.90;;;;;;5120188;28;20407;-57
2023/05/28 00:54:30;;;;;;;13.30;5.93;;;11.80;99.90;;;;;;5129568;28;20189;-59
2023/05/28 00:56:57;;;;;;;10.70;6.43;;;11.70;99.90;;;;;;5102061;28;20058;-60
2023/05/28 00:59:28;;;;;;;12.23;5.25;;;11.60;99.90;;;;;;5099581;28;20079;-59
2023/05/28 01:01:55;;;;;;;13.48;6.15;;;11.70;99.90;;;;;;5119194;28;20031;-59
2023/05/28 01:04:22;;;;;;;10.18;5.25;;;11.60;99.90;;;;;;5105861;28;20051;-58
2023/05/28 01:06:49;;;;;;;17.48;5.97;;;11.60;99.90;;;;;;5104287;28;20039;-59
2023/05/28 01:09:16;;;;;;;13.32;5.28;;;11.60;99.90;;;;;;5117570;27;20398;-59
2023/05/28 01:11:44;;;;;;;12.20;6.15;;;11.60;99.90;;;;;;5107915;27;20183;-57
2023/05/28 01:14:13;;;;;;;16.77;6.50;;;11.50;99.90;;;;;;5114298;27;20069;-59
2023/05/28 01:16:40;;;;;;;;;;;11.40;99.90;;;;;;5134253;27;20114;-58
2023/05/28 01:19:09;;;;;;;9.45;5.20;;;11.30;99.90;;;;;;5109183;27;19919;-58
2023/05/28 01:21:41;;;;;;;12.02;5.88;;;11.30;99.90;;;;;;5109839;27;20043;-59
2023/05/28 01:24:10;;;;;;;10.40;5.95;;;11.30;99.90;;;;;;5114645;27;20065;-59
2023/05/28 01:26:37;;;;;;;12.30;6.20;;;11.40;99.90;;;;;;5107338;27;20453;-59
2023/05/28 01:29:15;;;;;;;11.75;5.85;;;11.40;99.90;;;;;;5110878;27;20055;-59
2023/05/28 01:31:43;;;;;;;10.35;6.05;;;11.40;99.90;;;;;;5115815;27;20043;-58
2023/05/28 01:34:11;;;;;;;11.88;6.10;;;11.30;99.90;;;;;;5130628;27;20503;-58
2023/05/28 01:36:56;;;;;;;10.70;5.63;;;11.30;99.90;;;;;;5110373;27;20039;-59
2023/05/28 01:39:26;;;;;;;10.18;5.50;;;11.40;99.90;;;;;;5099031;27;20043;-59
2023/05/28 01:41:55;;;;;;;12.02;5.68;;;11.30;99.90;;;;;;5107204;27;20080;-59
2023/05/28 01:44:23;;;;;;;12.00;5.70;;;11.30;99.90;;;;;;5111379;28;20092;-59
2023/05/28 01:46:53;;;;;;;13.50;6.00;;;11.20;99.90;;;;;;5111995;27;20039;-59
2023/05/28 01:49:21;;;;;;;12.30;5.72;;;11.10;99.90;;;;;;5105828;27;20043;-59
2023/05/28 01:51:50;;;;;;;14.63;6.00;;;11.10;99.90;;;;;;5124589;27;20289;-58
2023/05/28 01:54:18;;;;;;;13.85;5.95;;;11.10;99.90;;;;;;5112107;27;20043;-59
2023/05/28 01:56:45;;;;;;;;;;;11.10;99.90;;;;;;5108130;28;20415;-59
2023/05/28 01:59:12;;;;;;;11.98;5.18;;;11.10;99.90;;;;;;5114546;27;19998;-59
2023/05/28 02:01:39;;;;;;;15.18;5.13;;;11.00;99.90;;;;;;5114415;27;20043;-60
2023/05/28 02:04:08;;;;;;;13.98;5.97;;;11.00;99.90;;;;;;5112755;27;20047;-59
2023/05/28 02:06:36;;;;;;;14.38;6.15;;;11.00;99.90;;;;;;5125513;27;20070;-59
2023/05/28 02:09:03;;;;;;;12.35;6.00;;;10.90;99.90;;;;;;5107432;27;20044;-59
2023/05/28 02:11:29;;;;;;;17.38;7.35;;;10.80;99.90;;;;;;5105294;27;20071;-59
2023/05/28 02:13:56;;;;;;;14.80;5.68;;;10.80;99.90;;;;;;5123260;27;20114;-59
2023/05/28 02:16:24;;;;;;;11.77;5.95;;;10.80;99.90;;;;;;5108952;27;20606;-59
2023/05/28 02:18:54;;;;;;;10.75;5.40;;;10.70;99.90;;;;;;5120119;27;20113;-59
2023/05/28 02:21:22;;;;;;;14.95;6.38;;;10.80;99.90;;;;;;5111970;27;20058;-56
2023/05/28 02:23:49;;;;;;;11.15;6.05;;;10.80;99.90;;;;;;5125035;27;20040;-58
2023/05/28 02:26:17;;;;;;;9.02;5.28;;;10.70;99.90;;;;;;5108843;27;20108;-56
2023/05/28 02:28:44;;;;;;;;;;;10.60;99.90;;;;;;5121221;27;20040;-60
2023/05/28 02:31:11;;;;;;;16.83;6.70;;;10.50;99.90;;;;;;5129005;27;20425;-57
2023/05/28 02:33:39;;;;;;;12.10;5.75;;;10.50;99.90;;;;;;5112742;27;20076;-60
2023/05/28 02:36:08;;;;;;;12.70;6.63;;;10.50;99.90;;;;;;5111558;27;20064;-59
2023/05/28 02:38:35;;;;;;;11.30;6.40;;;10.40;99.90;;;;;;5113940;27;20403;-59
2023/05/28 02:41:04;;;;;;;15.55;6.25;;;10.40;99.90;;;;;;5110419;27;20066;-60
2023/05/28 02:43:32;;;;;;;13.65;6.28;;;10.50;99.90;;;;;;5114396;27;20050;-59
2023/05/28 02:46:01;;;;;;;13.77;6.40;;;10.50;99.90;;;;;;5101269;27;20059;-59
2023/05/28 02:48:29;;;;;;;13.90;6.30;;;10.40;99.90;;;;;;5106895;27;20433;-60
2023/05/28 02:50:56;;;;;;;14.77;6.15;;;10.50;99.90;;;;;;5107622;27;20044;-59
2023/05/28 02:53:37;;;;;;;13.65;5.95;;;10.50;99.90;;;;;;5102458;28;20040;-58
2023/05/28 02:56:04;;;;;;;10.50;6.05;;;10.50;99.90;;;;;;5108348;27;20540;-60
2023/05/28 02:58:36;;;;;;;13.18;6.10;;;10.50;99.90;;;;;;5107489;27;20043;-58
2023/05/28 03:01:06;;;;;;;10.38;6.80;;;10.50;99.90;;;;;;5130154;27;20567;-59
2023/05/28 03:03:33;;;;;;;11.00;5.80;;;10.50;99.90;;;;;;5113092;27;20091;-59
2023/05/28 03:06:00;;;;;;;14.15;6.30;;;10.50;99.90;;;;;;5102860;27;20047;-59
2023/05/28 03:08:30;;;;;;;9.38;5.28;;;10.50;99.90;;;;;;5112079;27;20067;-59
2023/05/28 03:10:58;;;;;;;10.88;5.90;;;10.50;99.90;;;;;;5104907;27;20122;-59
2023/05/28 03:13:25;;;;;;;19.25;6.97;;;10.40;99.90;;;;;;5105023;27;20069;-58
2023/05/28 03:15:53;;;;;;;;;;;10.40;99.90;;;;;;5104085;27;20075;-57
2023/05/28 03:18:20;;;;;;;11.38;5.38;;;10.40;99.90;;;;;;5113069;27;19950;-60
2023/05/28 03:20:47;;;;;;;11.65;6.05;;;10.40;99.90;;;;;;5111618;27;20050;-59
2023/05/28 03:23:15;;;;;;;13.40;6.70;;;10.30;99.90;;;;;;5113196;27;20433;-59
2023/05/28 03:25:58;;;;;;;11.75;6.65;;;10.30;99.90;;;;;;5101125;28;20531;-60
2023/05/28 03:28:25;;;;;;;16.58;6.00;;;10.30;99.90;;;;;;5114775;27;20520;-58
2023/05/28 03:31:13;;;;;;;11.75;6.35;;;10.30;99.90;;;;;;5086948;27;20412;-60
2023/05/28 03:33:40;;;;;;;16.25;6.70;;;10.20;99.90;;;;;;5098573;28;20032;-59
2023/05/28 03:36:07;;;;;;;10.98;6.05;;;10.20;99.90;;;;;;5105442;27;20554;-60
2023/05/28 03:38:34;;;;;;;11.77;6.18;;;10.20;99.90;;;;;;5131023;27;20505;-58
2023/05/28 03:41:00;;;;;;;9.40;6.13;;;10.30;99.90;;;;;;5122603;27;20032;-59
2023/05/28 03:43:30;;;;;;;11.52;5.13;;;10.30;99.90;;;;;;5104522;28;20052;-59
2023/05/28 03:45:57;;;;;;;;;;;10.40;99.90;;;;;;5107006;28;20103;-56
2023/05/28 03:48:24;;;;;;;14.50;6.13;;;10.40;99.90;;;;;;5100261;28;20330;-59
2023/05/28 03:50:50;;;;;;;12.00;6.20;;;10.30;99.90;;;;;;5101146;28;20048;-56
2023/05/28 03:53:18;;;;;;;15.63;6.18;;;10.30;99.90;;;;;;5110358;27;20487;-59
2023/05/28 03:55:45;;;;;;;10.32;5.68;;;10.40;99.90;;;;;;5126600;27;20023;-59
2023/05/28 03:58:15;;;;;;;8.55;5.35;;;10.30;99.90;;;;;;5101761;28;20126;-59
2023/05/28 04:00:42;;;;;;;11.73;6.10;;;10.30;99.90;;;;;;5106836;28;20081;-59
2023/05/28 04:03:09;;;;;;;12.45;5.85;;;10.20;99.90;;;;;;5109278;28;20096;-59
2023/05/28 04:05:40;;;;;;;13.60;6.18;;;10.10;99.90;;;;;;5113120;28;20046;-60
2023/05/28 04:08:07;;;;;;;12.57;6.32;;;10.10;99.90;;;;;;5099978;28;20047;-58
2023/05/28 04:10:34;;;;;;;;;;;10.20;99.90;;;;;;5100730;28;20036;-58
2023/05/28 04:13:01;;;;;;;14.55;6.47;;;10.30;99.90;;;;;;5108583;28;20010;-58
2023/05/28 04:15:28;;;;;;;12.85;6.07;;;10.40;99.90;;;;;;5102850;28;20111;-59
2023/05/28 04:17:54;;;;;;;13.77;6.60;;;10.40;99.90;;;;;;5105216;28;20050;-59
2023/05/28 04:20:21;;;;;;;12.32;6.05;;;10.50;99.90;;;;;;5104038;28;20139;-59
2023/05/28 04:22:48;;;;;;;12.77;6.72;;;10.50;99.90;;;;;;5104101;28;20135;-59
2023/05/28 04:25:18;;;;;;;15.15;6.43;;;10.50;99.90;;;;;;5111139;28;20118;-58
2023/05/28 04:27:46;;;;;;;16.23;7.20;;;10.50;99.90;;;;;;5125548;28;20035;-62
2023/05/28 04:30:13;;;;;;;15.60;6.80;;;10.50;99.90;;;;;;5109216;28;20145;-59
2023/05/28 04:32:40;;;;;;;18.95;8.18;;;10.50;99.90;;;;;;5101425;28;20039;-59
2023/05/28 04:35:11;;;;;;;13.23;6.55;;;10.60;99.90;;;;;;5100976;28;20076;-59
2023/05/28 04:37:39;;;;;;;15.60;7.43;;;10.60;99.90;;;;;;5112695;28;20039;-60
2023/05/28 04:40:07;;;;;;;14.43;7.22;;;10.60;99.90;;;;;;5122406;28;20326;-58
2023/05/28 04:42:34;;;;;;;13.80;6.93;;;10.70;99.90;;;;;;5109806;28;20063;-57
2023/05/28 04:45:01;;;;;;;12.90;7.05;;;10.70;99.90;;;;;;5113703;27;20045;-59
2023/05/28 04:47:29;;;;;;;12.50;6.50;;;10.80;99.90;;;;;;5099062;27;20427;-58
2023/05/28 04:49:59;;;;;;;12.70;7.35;;;10.80;99.90;;;;;;5110080;27;20093;-59
2023/05/28 04:52:26;;;;;;;12.63;6.93;;;10.80;99.90;;;;;;5123288;27;20035;-59
2023/05/28 04:54:53;;;;;;;11.95;7.18;;;10.80;99.90;;;;;;5106742;27;20085;-59
2023/05/28 04:57:20;;;;;;;13.43;6.50;;;11.00;99.90;;;;;;5107056;27;20043;-61
2023/05/28 04:59:48;;;;;;;14.18;7.18;;;11.00;99.90;;;;;;5103880;27;20047;-58
2023/05/28 05:02:16;;;;;;;14.13;7.53;;;11.10;99.90;;;;;;5103847;27;20047;-57
2023/05/28 05:04:45;;;;;;;12.93;6.55;;;11.30;99.90;;;;;;5126076;27;20274;-58
2023/05/28 05:07:14;;;;;;;16.13;6.63;;;11.30;99.90;;;;;;5106643;27;20131;-56
2023/05/28 05:09:42;;;;;;;13.25;7.22;;;11.30;99.90;;;;;;5096200;28;20146;-58
2023/05/28 05:12:09;;;;;;;16.63;7.15;;;11.40;99.90;;;;;;5113682;27;20096;-59
2023/05/28 05:14:36;;;;;;;15.75;7.95;;;11.40;99.90;;;;;;5107782;27;20032;-56
2023/05/28 05:17:04;;;;;;;13.98;7.75;;;11.50;99.90;;;;;;5110738;28;20114;-59
2023/05/28 05:19:31;;;;;;;16.33;7.78;;;11.50;99.90;;;;;;5096605;28;20086;-59
2023/05/28 05:21:58;;;;;;;15.52;7.47;;;11.70;99.90;;;;;;5101527;28;20130;-59
2023/05/28 05:24:25;;;;;;;12.70;7.20;;;11.70;99.90;;;;;;5095864;28;20047;-59
2023/05/28 05:26:51;;;;;;;13.07;7.35;;;11.80;99.90;;;;;;5121510;28;20043;-59
2023/05/28 05:29:19;;;;;;;;;;;11.80;99.90;;;;;;5109777;28;20054;-58
2023/05/28 05:31:47;;;;;;;14.85;7.22;;;11.90;99.90;;;;;;5121181;28;19919;-58
2023/05/28 05:34:14;;;;;;;15.32;8.05;;;11.90;99.90;;;;;;5110674;28;20126;-58
2023/05/28 05:37:00;;;;;;;15.85;7.60;;;12.00;99.90;;;;;;5124923;28;20046;-57
2023/05/28 05:39:42;;;;;;;13.98;7.93;;;12.00;99.90;;;;;;5112367;28;20043;-59
2023/05/28 05:42:27;;;;;;;16.33;7.78;;;12.10;99.90;;;;;;5124134;28;20108;-57
2023/05/28 05:44:54;;;;;;;13.38;7.40;;;12.10;99.90;;;;;;5107232;28;20126;-59
2023/05/28 05:47:21;;;;;;;13.32;7.35;;;12.20;99.90;;;;;;5121849;28;20039;-59
2023/05/28 05:49:48;;;;;;;15.60;7.07;;;12.30;99.90;;;;;;5105680;28;20043;-58
2023/05/28 05:52:15;;;;;;;15.25;7.03;;;12.30;99.90;;;;;;5103923;28;20507;-57
2023/05/28 05:54:42;;;;;;;19.05;7.60;;;12.30;99.90;;;;;;5110101;28;20069;-58
2023/05/28 05:57:10;;;;;;;;;;;12.40;99.90;;;;;;5107763;28;20035;-59
2023/05/28 05:59:38;;;;;;;12.40;7.07;;;12.50;99.90;;;;;;5102473;28;19924;-58
2023/05/28 06:02:06;;;;;;;16.73;8.00;;;12.60;99.90;;;;;;5108859;28;20039;-59
2023/05/28 06:04:33;;;;;;;11.30;7.20;;;12.60;99.90;;;;;;5098632;28;20446;-58
2023/05/28 06:07:06;;;;;;;14.40;7.13;;;12.60;99.90;;;;;;5127591;28;20039;-59
2023/05/28 06:09:49;;;;;;;12.82;6.97;;;12.70;99.90;;;;;;5120077;28;20039;-58
2023/05/28 06:12:20;;;;;;;18.20;7.15;;;12.80;99.90;;;;;;5105666;28;20046;-60
2023/05/28 06:14:47;;;;;;;16.10;8.00;;;12.80;99.90;;;;;;5105938;28;20065;-57
2023/05/28 06:17:15;;;;;;;13.40;6.93;;;12.80;99.90;;;;;;5110877;27;20049;-58
2023/05/28 06:19:42;;;;;;;14.90;6.63;;;12.90;99.90;;;;;;5133029;27;20127;-58
2023/05/28 06:22:10;;;;;;;16.25;8.02;;;13.00;99.90;;;;;;5113225;27;20035;-58
2023/05/28 06:24:39;;;;;;;13.80;6.68;;;13.10;99.90;;;;;;5105328;27;20129;-57
2023/05/28 06:27:08;;;;;;;12.10;6.90;;;13.20;99.90;;;;;;5113704;27;20125;-59
2023/05/28 06:29:35;;;;;;;15.15;7.18;;;13.30;99.90;;;;;;5114530;27;20031;-57
2023/05/28 06:32:01;;;;;;;11.05;6.22;;;13.40;99.90;;;;;;5102015;28;20050;-57
2023/05/28 06:34:29;;;;;;;13.43;7.18;;;13.50;99.90;;;;;;5111829;27;20129;-58
2023/05/28 06:36:56;;;;;;;16.63;7.25;;;13.70;99.90;;;;;;5104301;28;20089;-58
2023/05/28 06:39:23;;;;;;;10.68;6.25;;;13.80;99.90;;;;;;5112945;27;20100;-56
2023/05/28 06:41:51;;;;;;;14.68;6.65;;;13.90;99.90;;;;;;5106836;28;20075;-59
2023/05/28 06:44:26;;;;;;;14.32;6.68;;;14.10;99.90;;;;;;5110687;27;20047;-57
2023/05/28 06:47:03;;;;;;;15.85;6.50;;;14.30;99.90;;;;;;5132159;27;20544;-57
2023/05/28 06:49:30;;;;;;;15.48;6.80;;;14.40;99.90;;;;;;5111778;27;20050;-59
2023/05/28 06:51:57;;;;;;;14.27;6.30;;;14.50;99.90;;;;;;5107115;28;20100;-58
2023/05/28 06:54:24;;;;;;;13.02;6.75;;;14.60;99.90;;;;;;5102817;27;20515;-57
2023/05/28 06:56:51;;;;;;;12.00;6.45;;;14.80;99.90;;;;;;5105074;27;20057;-58
2023/05/28 06:59:33;;;;;;;14.30;6.15;;;14.90;99.90;;;;;;5122860;27;20441;-57
2023/05/28 07:02:22;;;;;;;15.90;6.35;;;15.00;99.90;;;;;;5121168;27;20111;-59
2023/05/28 07:05:09;;;;;;;12.80;5.65;;;15.10;99.90;;;;;;5131733;27;20467;-57
2023/05/28 07:07:37;;;;;;;16.55;6.65;;;15.10;99.90;;;;;;5104463;27;20381;-56
2023/05/28 07:10:04;;;;;;;;;;;15.20;99.90;;;;;;5105305;27;20047;-57
2023/05/28 07:12:32;;;;;;;14.85;6.07;;;15.20;99.90;;;;;;5129503;27;19928;-58
2023/05/28 07:15:00;;;;;;;13.52;5.88;;;15.30;99.90;;;;;;5100898;28;20044;-59
2023/05/28 07:17:30;;;;;;;13.40;6.03;;;15.40;99.90;;;;;;5108020;27;20047;-59
2023/05/28 07:19:57;;;;;;;16.27;6.35;;;15.50;99.90;;;;;;5085463;28;20094;-58
2023/05/28 07:22:50;;;;;;;11.82;6.13;;;15.70;99.90;;;;;;5115302;27;20073;-58
2023/05/28 07:25:17;;;;;;;;;;;15.80;99.90;;;;;;5111605;27;20056;-57
2023/05/28 07:27:44;;;;;;;13.85;6.07;;;15.90;99.90;;;;;;5104730;27;20157;-58
2023/05/28 07:30:16;;;;;;;10.93;5.82;;;15.90;99.90;;;;;;5112229;27;20385;-57
2023/05/28 07:32:43;;;;;;;14.50;5.78;;;16.10;99.90;;;;;;5104985;27;20084;-61
2023/05/28 07:35:10;;;;;;;12.93;6.10;;;16.10;99.90;;;;;;5104875;28;20039;-58
2023/05/28 07:37:38;;;;;;;11.95;5.85;;;16.20;99.90;;;;;;5130215;27;20054;-60
2023/05/28 07:40:06;;;;;;;10.35;5.85;;;16.20;99.90;;;;;;5110657;27;20130;-60
2023/05/28 07:42:34;;;;;;;13.02;6.20;;;16.20;99.90;;;;;;5109953;27;20530;-60
2023/05/28 07:45:05;;;;;;;16.05;6.75;;;16.30;99.90;;;;;;5102841;27;20249;-60
2023/05/28 07:47:33;;;;;;;12.40;5.85;;;16.40;99.90;;;;;;5096105;27;20427;-58
2023/05/28 07:50:14;;;;;;;13.63;6.30;;;16.50;99.90;;;;;;5110030;27;20453;-57
2023/05/28 07:53:05;;;;;;;11.30;5.75;;;16.50;99.90;;;;;;5094161;27;20407;-58
2023/05/28 07:55:32;;;;;;;14.32;6.45;;;16.60;99.90;;;;;;5105861;27;20108;-55
2023/05/28 07:57:59;;;;;;;16.88;6.85;;;16.60;99.90;;;;;;5131025;27;20058;-59
2023/05/28 08:00:28;;;;;;;12.93;6.63;;;16.70;99.90;;;;;;5103329;28;20075;-58
2023/05/28 08:03:01;;;;;;;16.38;6.80;;;16.80;99.90;;;;;;5112037;28;20062;-59
2023/05/28 08:05:36;;;;;;;13.68;7.15;;;16.90;99.90;;;;;;5112162;28;20129;-57
2023/05/28 08:08:04;;;;;;;14.50;6.75;;;16.90;99.90;;;;;;5112054;28;20043;-58
2023/05/28 08:10:31;;;;;;;13.85;7.07;;;17.00;99.90;;;;;;5113028;28;20050;-59
2023/05/28 08:13:00;;;;;;;19.13;6.90;;;17.20;99.90;;;;;;5112809;28;20130;-59
2023/05/28 08:15:36;;;;;;;15.52;6.55;;;17.20;99.90;;;;;;5118309;28;20518;-58
2023/05/28 08:18:04;;;;;;;18.30;6.88;;;17.30;99.90;;;;;;5111002;28;20035;-58
2023/05/28 08:20:32;;;;;;;15.73;6.28;;;17.30;99.90;;;;;;5114934;27;20042;-57
2023/05/28 08:23:22;;;;;;;13.98;6.38;;;17.40;99.90;;;;;;5110794;27;20051;-56
2023/05/28 08:25:51;;;;;;;13.88;6.50;;;17.60;99.90;;;;;;5131608;27;20031;-57
2023/05/28 08:28:24;;;;;;;11.90;6.75;;;17.60;99.90;;;;;;5116480;27;20093;-57
2023/05/28 08:30:51;;;;;;;16.85;7.15;;;17.70;99.90;;;;;;5116790;27;20035;-58
2023/05/28 08:33:34;;;;;;;14.10;6.70;;;17.70;99.90;;;;;;5100822;27;20035;-59
2023/05/28 08:36:02;;;;;;;;;;;17.80;99.90;;;;;;5113563;27;20688;-56
2023/05/28 08:38:30;;;;;;;15.68;6.70;;;17.80;99.90;;;;;;5113951;27;19926;-59
2023/05/28 08:40:57;;;;;;;;;;;17.90;99.90;;;;;;5111388;28;20044;-58
2023/05/28 08:43:27;;;;;;;14.20;6.85;;;17.90;99.90;;;;;;5114287;27;19919;-57
2023/05/28 08:45:56;;;;;;;15.30;6.50;;;18.00;99.90;;;;;;5116196;27;20039;-59
2023/05/28 08:48:55;;;;;;;18.38;6.50;;;18.00;99.90;;;;;;5104333;27;20076;-56
2023/05/28 08:51:24;;;;;;;;;;;18.10;99.90;;;;;;5110699;27;20129;-59
2023/05/28 08:53:54;;;;;;;14.00;6.53;;;18.40;99.90;;;;;;5116761;27;19919;-57
2023/05/28 08:56:26;;;;;;;13.88;6.80;;;18.60;99.90;;;;;;5105775;27;20487;-56
2023/05/28 08:58:53;;;;;;;14.60;7.43;;;18.70;99.90;;;;;;5109015;28;20127;-58
2023/05/28 09:01:21;;;;;;;16.38;6.90;;;18.70;99.90;;;;;;5104786;27;20050;-59
2023/05/28 09:03:58;;;;;;;15.95;7.38;;;18.90;99.90;;;;;;5116294;27;20043;-57
2023/05/28 09:06:31;;;;;;;14.82;7.85;;;18.90;99.90;;;;;;5110365;27;20043;-58
2023/05/28 09:08:59;;;;;;;19.83;8.13;;;19.10;99.90;;;;;;5096431;28;20044;-58
2023/05/28 09:11:38;;;;;;;17.73;8.32;;;19.10;99.90;;;;;;5115036;27;20043;-60
2023/05/28 09:14:12;;;;;;;16.95;8.27;;;19.10;99.90;;;;;;5111235;27;20049;-60
2023/05/28 09:16:41;;;;;;;13.93;7.63;;;19.10;99.90;;;;;;5116193;27;20388;-59
2023/05/28 09:19:15;;;;;;;17.10;8.80;;;19.10;99.90;;;;;;5110753;27;20067;-58
2023/05/28 09:21:57;;;;;;;15.48;7.20;;;19.30;99.90;;;;;;5116025;27;20043;-59
2023/05/28 09:24:33;;;;;;;25.38;8.02;;;19.40;99.90;;;;;;5115102;27;20411;-58
2023/05/28 09:27:22;;;;;;;15.50;7.63;;;19.50;99.90;;;;;;5110387;28;20565;-57
2023/05/28 09:29:49;;;;;;;17.42;7.38;;;19.60;99.90;;;;;;5115944;27;20134;-59
2023/05/28 09:32:22;;;;;;;13.68;6.47;;;19.60;99.90;;;;;;5134364;27;20460;-59
2023/05/28 09:34:52;;;;;;;13.98;7.25;;;19.50;99.90;;;;;;5130019;27;20097;-58
2023/05/28 09:37:20;;;;;;;17.65;7.40;;;19.40;99.90;;;;;;5122690;27;20048;-59
2023/05/28 09:39:47;;;;;;;15.50;7.25;;;19.30;99.90;;;;;;5115832;27;20089;-59
2023/05/28 09:42:14;;;;;;;20.63;7.63;;;19.40;99.90;;;;;;5122046;27;20127;-60
2023/05/28 09:44:42;;;;;;;13.38;7.05;;;19.50;99.90;;;;;;5130022;27;20051;-59
2023/05/28 09:47:16;;;;;;;12.07;6.95;;;19.50;99.90;;;;;;5125802;27;20468;-60
2023/05/28 09:49:47;;;;;;;18.08;7.97;;;19.60;99.90;;;;;;5123161;27;20498;-60
2023/05/28 09:52:21;;;;;;;19.13;7.57;;;19.50;99.90;;;;;;5126667;27;20157;-59
2023/05/28 09:54:59;;;;;;;15.75;7.13;;;19.50;99.90;;;;;;5106574;27;20031;-59
2023/05/28 09:57:32;;;;;;;18.15;7.40;;;19.50;99.90;;;;;;5115610;27;20050;-58
2023/05/28 10:00:14;;;;;;;22.13;7.40;;;19.60;99.90;;;;;;5127153;27;20053;-61
2023/05/28 10:02:53;;;;;;;11.82;6.85;;;19.80;99.90;;;;;;5112247;27;20044;-59
2023/05/28 10:05:21;;;;;;;21.38;8.02;;;19.70;99.90;;;;;;5126723;27;20055;-58
2023/05/28 10:07:53;;;;;;;14.38;7.53;;;19.70;99.90;;;;;;5120856;27;20118;-59
2023/05/28 10:10:21;;;;;;;16.42;7.75;;;19.80;99.90;;;;;;5115256;27;20430;-58
2023/05/28 10:12:49;;;;;;;16.92;7.30;;;19.90;99.90;;;;;;5124530;27;20053;-59
2023/05/28 10:15:17;;;;;;;19.33;7.93;;;20.00;99.90;;;;;;5124990;27;20046;-60
2023/05/28 10:17:44;;;;;;;13.73;7.13;;;20.10;99.90;;;;;;5130583;27;20078;-59
2023/05/28 10:20:11;;;;;;;16.40;7.30;;;20.20;99.90;;;;;;5114214;27;20453;-58
2023/05/28 10:22:39;;;;;;;;;;;20.20;99.90;;;;;;5125375;27;20047;-59
2023/05/28 10:25:08;;;;;;;15.60;7.18;;;20.30;99.90;;;;;;5132882;27;19954;-59
2023/05/28 10:27:37;;;;;;;12.95;6.38;;;20.30;99.90;;;;;;5129604;27;20771;-57
2023/05/28 10:30:04;;;;;;;14.65;6.18;;;20.40;99.90;;;;;;5133520;27;20070;-55
2023/05/28 10:32:44;;;;;;;16.83;7.20;;;20.50;99.90;;;;;;5124410;27;20043;-60
2023/05/28 10:35:12;;;;;;;14.55;6.50;;;20.50;99.90;;;;;;5114363;27;20035;-59
2023/05/28 10:37:39;;;;;;;15.25;5.90;;;20.50;99.90;;;;;;5124230;27;20507;-59
2023/05/28 10:40:08;;;;;;;;;;;20.30;99.90;;;;;;5119699;27;20050;-58
2023/05/28 10:42:41;;;;;;;14.82;6.75;;;20.10;99.90;;;;;;5126467;27;19925;-56
2023/05/28 10:45:12;;;;;;;14.63;5.70;;;20.30;99.90;;;;;;5114749;27;20114;-59
2023/05/28 10:47:41;;;;;;;13.45;5.70;;;20.40;99.90;;;;;;5130641;27;20049;-58
2023/05/28 10:50:08;;;;;;;14.98;6.07;;;20.60;99.90;;;;;;5130697;27;20494;-55
2023/05/28 10:53:08;;;;;;;17.45;6.38;;;20.80;99.90;;;;;;5128172;27;20070;-57
2023/05/28 10:55:51;;;;;;;12.68;5.90;;;20.90;99.90;;;;;;5109914;27;20043;-60
2023/05/28 10:58:32;;;;;;;11.98;5.63;;;21.10;99.90;;;;;;5122855;27;20097;-59
2023/05/28 11:01:11;;;;;;;10.23;5.43;;;21.10;99.90;;;;;;5127320;27;20035;-59
2023/05/28 11:03:47;;;;;;;14.07;5.88;;;21.00;99.90;;;;;;5124114;27;20048;-61
2023/05/28 11:06:14;;;;;;;14.23;5.47;;;20.90;99.90;;;;;;5106925;27;20039;-60
2023/05/28 11:08:46;;;;;;;14.40;5.47;;;20.80;99.90;;;;;;5126650;27;20035;-61
2023/05/28 11:11:15;;;;;;;9.68;4.72;;;20.90;99.90;;;;;;5123609;27;20438;-60
2023/05/28 11:13:45;;;;;;;10.00;5.43;;;20.90;99.90;;;;;;5125775;27;20096;-60
2023/05/28 11:19:58;;;;;;;9.73;4.25;;;21.10;99.90;;;;;;5119125;27;20122;-61
2023/05/28 11:22:34;;;;;;;12.85;5.35;;;21.20;99.90;;;;;;5128001;27;20047;-60
2023/05/28 11:25:06;;;;;;;15.48;5.05;;;21.20;99.90;;;;;;5117026;27;20031;-59
2023/05/28 11:27:35;;;;;;;8.77;5.03;;;21.20;99.90;;;;;;5124145;27;20053;-60
2023/05/28 11:30:11;;;;;;;12.68;5.53;;;21.30;99.90;;;;;;5119951;27;20031;-58
2023/05/28 11:32:38;;;;;;;10.63;4.30;;;21.20;99.90;;;;;;5123452;27;20070;-60
2023/05/28 11:35:05;;;;;;;11.63;5.03;;;21.30;99.90;;;;;;5126069;27;20100;-57
2023/05/28 11:37:34;;;;;;;11.07;4.32;;;21.30;99.90;;;;;;5124502;27;20518;-59
2023/05/28 11:40:05;;;;;;;10.00;4.10;;;21.20;99.90;;;;;;5126583;27;20043;-59
2023/05/28 11:42:33;;;;;;;11.82;5.15;;;21.10;99.90;;;;;;5102595;27;20488;-59
2023/05/28 11:45:00;;;;;;;14.77;5.45;;;21.10;99.90;;;;;;5121197;27;20047;-59
2023/05/28 11:47:27;;;;;;;12.32;4.63;;;21.30;99.90;;;;;;5122498;27;20045;-57
2023/05/28 11:49:54;;;;;;;10.52;4.57;;;21.40;99.90;;;;;;5124223;27;20039;-59
2023/05/28 11:52:24;;;;;;;10.65;4.18;;;21.50;99.90;;;;;;5122185;27;20395;-57
2023/05/28 11:54:56;;;;;;;10.80;4.47;;;21.60;99.90;;;;;;5124506;27;20050;-56
2023/05/28 11:57:33;;;;;;;11.20;5.35;;;21.80;99.90;;;;;;5123683;27;21008;-60
2023/05/28 12:00:15;;;;;;;10.65;4.95;;;21.80;99.90;;;;;;5125621;27;20453;-58
2023/05/28 12:02:46;;;;;;;11.55;4.82;;;21.70;99.90;;;;;;5121850;27;20083;-60
2023/05/28 12:05:15;;;;;;;11.93;4.32;;;21.80;99.90;;;;;;5122683;28;20047;-58
2023/05/28 12:07:45;;;;;;;13.15;5.28;;;21.60;99.90;;;;;;5121179;28;20039;-60
2023/05/28 12:10:14;;;;;;;9.73;4.90;;;21.90;99.90;;;;;;5123469;28;20039;-60
2023/05/28 12:12:48;;;;;;;11.45;4.70;;;22.00;99.90;;;;;;5120432;28;20039;-59
2023/05/28 12:15:16;;;;;;;10.15;4.90;;;22.10;99.90;;;;;;5130825;28;20664;-60
2023/05/28 12:17:46;;;;;;;8.32;4.25;;;22.10;99.90;;;;;;5126937;28;20235;-59
2023/05/28 12:20:17;;;;;;;14.60;4.65;;;22.10;99.90;;;;;;5106794;28;20051;-59
2023/05/28 12:22:44;;;;;;;10.85;4.30;;;22.20;99.90;;;;;;5123048;28;20043;-58
2023/05/28 12:25:11;;;;;;;;;;;22.10;99.90;;;;;;5123222;28;20047;-58
2023/05/28 12:27:38;;;;;;;11.45;4.90;;;22.10;99.90;;;;;;5129155;28;19926;-60
2023/05/28 12:30:06;;;;;;;10.93;4.55;;;22.10;99.40;;;;;;5124749;28;20027;-57
2023/05/28 12:32:36;;;;;;;9.77;4.30;;;22.10;99.90;;;;;;5115229;28;20082;-59
2023/05/28 12:35:03;;;;;;;7.57;3.97;;;22.30;99.90;;;;;;5128886;28;20039;-60
2023/05/28 12:37:30;;;;;;;;;;;22.40;99.90;;;;;;5118251;28;20040;-59
2023/05/28 12:39:56;;;;;;;8.43;4.22;;;22.40;99.60;;;;;;5119336;28;20368;-59
2023/05/28 12:42:23;;;;;;;15.70;4.78;;;22.30;98.90;;;;;;5117859;28;20047;-59
2023/05/28 12:44:50;;;;;;;10.07;4.13;;;22.30;99.40;;;;;;5128449;28;20438;-59
2023/05/28 12:47:17;;;;;;;13.80;4.20;;;22.50;98.40;;;;;;5104171;28;20035;-60
2023/05/28 12:49:44;;;;;;;10.02;4.43;;;22.50;98.40;;;;;;5101965;28;20044;-57
2023/05/28 12:52:11;;;;;;;11.27;4.50;;;22.60;99.10;;;;;;5129134;28;20042;-58
2023/05/28 12:54:37;;;;;;;11.93;4.47;;;22.70;99.50;;;;;;5126457;28;20118;-58
2023/05/28 12:57:05;;;;;;;12.02;4.78;;;22.90;98.10;;;;;;5120040;28;20085;-59
2023/05/28 12:59:32;;;;;;;7.55;3.38;;;23.00;99.10;;;;;;5123017;28;20052;-59